createdAt,value
2019-02-16T00:00:55.454Z,94.80
2019-02-16T00:03:27.215Z,92.60
2019-02-16T00:05:58.866Z,91.70
2019-02-16T00:08:30.540Z,136.13
2019-02-16T00:11:02.490Z,123.83
2019-02-16T00:13:34.257Z,102.67
2019-02-16T00:16:05.920Z,77.07
2019-02-16T00:18:37.529Z,115.53
2019-02-16T00:21:09.128Z,88.97
2019-02-16T00:23:40.804Z,76.20
2019-02-16T00:26:12.393Z,70.47
2019-02-16T00:28:44.003Z,65.43
2019-02-16T00:31:15.607Z,61.63
2019-02-16T00:33:47.221Z,59.00
2019-02-16T00:36:19.493Z,63.53
2019-02-16T00:38:51.521Z,66.10
2019-02-16T00:41:23.185Z,100.60
2019-02-16T00:43:54.831Z,84.10
2019-02-16T00:46:26.418Z,60.93
2019-02-16T00:48:58.092Z,65.77
2019-02-16T00:51:29.752Z,62.03
2019-02-16T00:54:01.679Z,63.80
2019-02-16T00:56:33.697Z,71.57
2019-02-16T00:59:05.660Z,64.13
2019-02-16T01:01:37.269Z,57.53
2019-02-16T01:04:08.891Z,78.80
2019-02-16T01:06:40.557Z,63.07
2019-02-16T01:09:12.179Z,92.43
2019-02-16T01:11:43.852Z,75.13
2019-02-16T01:14:15.466Z,66.50
2019-02-16T01:16:47.070Z,67.87
2019-02-16T01:19:18.771Z,60.80
2019-02-16T01:21:50.461Z,71.20
2019-02-16T01:24:22.067Z,69.23
2019-02-16T01:26:53.657Z,60.40
2019-02-16T01:29:25.279Z,60.20
2019-02-16T01:31:56.945Z,70.50
2019-02-16T01:34:28.530Z,82.93
2019-02-16T01:37:00.268Z,68.00
2019-02-16T01:39:31.884Z,80.80
2019-02-16T01:42:03.713Z,78.00
2019-02-16T01:44:35.696Z,68.93
2019-02-16T01:47:07.294Z,73.77
2019-02-16T01:49:38.978Z,69.93
2019-02-16T01:52:10.754Z,73.47
2019-02-16T01:54:42.437Z,83.00
2019-02-16T01:57:14.109Z,73.93
2019-02-16T01:59:45.877Z,84.10
2019-02-16T02:02:17.547Z,72.97
2019-02-16T02:04:49.158Z,69.67
2019-02-16T02:07:20.815Z,70.20
2019-02-16T02:09:52.494Z,70.33
2019-02-16T02:12:25.177Z,90.33
2019-02-16T02:14:56.853Z,85.03
2019-02-16T02:17:28.509Z,81.00
2019-02-16T02:20:00.358Z,65.40
2019-02-16T02:22:32.072Z,70.53
2019-02-16T02:25:03.774Z,66.20
2019-02-16T02:27:35.692Z,68.97
2019-02-16T02:30:08.194Z,64.30
2019-02-16T02:32:39.873Z,70.13
2019-02-16T02:35:11.507Z,60.33
2019-02-16T02:37:43.242Z,95.17
2019-02-16T02:40:14.838Z,78.37
2019-02-16T02:42:46.445Z,78.87
2019-02-16T02:45:18.065Z,74.97
2019-02-16T02:47:49.677Z,62.33
2019-02-16T02:50:21.351Z,65.80
2019-02-16T02:52:52.971Z,96.50
2019-02-16T02:55:24.645Z,76.97
2019-02-16T02:57:56.252Z,69.93
2019-02-16T03:00:28.779Z,68.03
2019-02-16T03:03:00.452Z,61.80
2019-02-16T03:05:32.339Z,66.73
2019-02-16T03:08:04.007Z,67.67
2019-02-16T03:10:35.803Z,64.10
2019-02-16T03:13:07.483Z,79.23
2019-02-16T03:15:39.188Z,77.07
2019-02-16T03:18:10.866Z,82.93
2019-02-16T03:20:42.527Z,82.03
2019-02-16T03:23:23.378Z,74.53
2019-02-16T03:26:10.414Z,71.37
2019-02-16T03:29:04.011Z,68.93
2019-02-16T03:32:12.572Z,73.53
2019-02-16T03:35:27.966Z,70.47
2019-02-16T03:38:41.723Z,68.23
2019-02-16T03:41:15.713Z,69.50
2019-02-16T03:43:47.394Z,67.47
2019-02-16T03:46:19.001Z,76.37
2019-02-16T03:48:50.611Z,75.57
2019-02-16T03:51:22.226Z,81.27
2019-02-16T03:53:53.810Z,75.00
2019-02-16T03:56:25.489Z,80.83
2019-02-16T03:58:57.093Z,80.10
2019-02-16T04:01:28.653Z,86.53
2019-02-16T04:04:00.257Z,83.33
2019-02-16T04:06:31.909Z,88.00
2019-02-16T04:09:05.469Z,82.07
2019-02-16T04:11:37.197Z,77.40
2019-02-16T04:14:08.777Z,93.17
2019-02-16T04:16:40.372Z,81.60
2019-02-16T04:19:11.977Z,85.17
2019-02-16T04:21:43.582Z,86.50
2019-02-16T04:24:15.286Z,74.27
2019-02-16T04:26:46.894Z,84.80
2019-02-16T04:29:18.508Z,87.00
2019-02-16T04:31:50.185Z,83.03
2019-02-16T04:34:21.791Z,91.53
2019-02-16T04:36:53.390Z,91.13
2019-02-16T04:39:25.084Z,106.17
2019-02-16T04:41:56.660Z,105.87
2019-02-16T04:44:28.271Z,133.87
2019-02-16T04:46:59.873Z,92.47
2019-02-16T04:49:31.881Z,154.10
2019-02-16T04:52:03.750Z,112.63
2019-02-16T04:54:35.675Z,142.10
2019-02-16T04:57:07.279Z,136.23
2019-02-16T04:59:38.871Z,156.33
2019-02-16T05:02:10.599Z,292.17
2019-02-16T05:04:42.290Z,362.37
2019-02-16T05:07:13.899Z,271.73
2019-02-16T05:09:45.494Z,371.60
2019-02-16T05:12:17.273Z,287.07
2019-02-16T05:14:48.894Z,156.33
2019-02-16T05:17:20.558Z,160.27
2019-02-16T05:19:53.109Z,149.70
2019-02-16T05:22:24.719Z,142.80
2019-02-16T05:24:56.401Z,132.30
2019-02-16T05:27:27.992Z,122.60
2019-02-16T05:29:59.617Z,106.97
2019-02-16T05:32:31.432Z,135.73
2019-02-16T05:35:03.044Z,110.97
2019-02-16T05:37:34.822Z,100.90
2019-02-16T05:40:07.540Z,112.63
2019-02-16T05:42:39.156Z,109.70
2019-02-16T05:45:10.996Z,133.97
2019-02-16T05:47:42.683Z,118.23
2019-02-16T05:50:14.295Z,119.00
2019-02-16T05:52:54.232Z,129.77
2019-02-16T05:55:19.279Z,134.67
2019-02-16T05:57:51.011Z,173.67
2019-02-16T06:00:25.795Z,215.70
2019-02-16T06:02:57.336Z,251.50
2019-02-16T06:05:29.062Z,307.97
2019-02-16T06:08:00.666Z,300.83
2019-02-16T06:10:32.609Z,205.37
2019-02-16T06:13:04.231Z,156.10
2019-02-16T06:15:35.943Z,126.50
2019-02-16T06:18:07.557Z,117.53
2019-02-16T06:20:39.175Z,126.17
2019-02-16T06:23:10.894Z,117.97
2019-02-16T06:25:42.589Z,122.00
2019-02-16T06:28:14.218Z,138.30
2019-02-16T06:30:45.872Z,198.67
2019-02-16T06:33:17.569Z,257.60
2019-02-16T06:35:51.964Z,441.80
2019-02-16T06:38:23.575Z,580.17
2019-02-16T06:40:55.225Z,598.10
2019-02-16T06:43:26.840Z,431.93
2019-02-16T06:45:58.463Z,160.80
2019-02-16T06:48:30.120Z,119.40
2019-02-16T06:51:01.972Z,111.53
2019-02-16T06:53:33.805Z,106.27
2019-02-16T06:56:24.603Z,100.00
2019-02-16T06:58:56.273Z,109.37
2019-02-16T07:01:27.871Z,121.37
2019-02-16T07:04:00.620Z,107.50
2019-02-16T07:06:32.586Z,117.50
2019-02-16T07:09:05.705Z,111.13
2019-02-16T07:11:37.391Z,116.57
2019-02-16T07:14:09.028Z,101.40
2019-02-16T07:16:49.496Z,114.80
2019-02-16T07:19:40.075Z,203.13
2019-02-16T07:22:11.704Z,336.43
2019-02-16T07:24:43.361Z,371.30
2019-02-16T07:27:14.976Z,343.37
2019-02-16T07:29:46.659Z,239.00
2019-02-16T07:32:18.365Z,184.20
2019-02-16T07:34:49.955Z,244.27
2019-02-16T07:37:21.570Z,217.37
2019-02-16T07:39:53.173Z,186.00
2019-02-16T07:42:25.138Z,140.10
2019-02-16T07:45:15.649Z,120.77
2019-02-16T07:47:52.589Z,131.47
2019-02-16T07:50:46.092Z,124.17
2019-02-16T07:53:48.529Z,126.47
2019-02-16T07:56:30.167Z,153.17
2019-02-16T07:59:20.602Z,181.70
2019-02-16T08:02:23.115Z,207.13
2019-02-16T08:05:15.589Z,187.73
2019-02-16T08:07:59.814Z,160.50
2019-02-16T08:10:53.181Z,154.27
2019-02-16T08:13:45.276Z,159.33
2019-02-16T08:16:41.882Z,125.40
2019-02-16T08:19:27.845Z,141.43
2019-02-16T08:22:07.664Z,153.73
2019-02-16T08:25:04.634Z,139.20
2019-02-16T08:27:56.363Z,137.00
2019-02-16T08:30:42.262Z,150.70
2019-02-16T08:33:34.245Z,161.60
2019-02-16T08:36:23.388Z,152.77
2019-02-16T08:39:12.438Z,122.67
2019-02-16T08:42:01.594Z,108.70
2019-02-16T08:44:50.730Z,92.00
2019-02-16T08:47:37.182Z,112.33
2019-02-16T08:50:30.534Z,107.07
2019-02-16T08:53:16.866Z,86.13
2019-02-16T08:56:22.521Z,88.73
2019-02-16T08:59:11.726Z,92.30
2019-02-16T09:02:00.566Z,109.37
2019-02-16T09:04:49.854Z,110.90
2019-02-16T09:07:40.384Z,112.30
2019-02-16T09:10:29.380Z,158.80
2019-02-16T09:13:13.331Z,115.80
2019-02-16T09:16:07.590Z,91.87
2019-02-16T09:18:48.847Z,108.63
2019-02-16T09:21:51.299Z,113.37
2019-02-16T09:24:57.076Z,102.70
2019-02-16T09:27:38.707Z,88.27
2019-02-16T09:30:24.579Z,105.67
2019-02-16T09:33:12.478Z,99.10
2019-02-16T09:36:04.473Z,98.30
2019-02-16T09:38:53.470Z,88.93
2019-02-16T09:41:42.746Z,76.07
2019-02-16T09:44:23.347Z,82.10
2019-02-16T09:47:32.135Z,77.37
2019-02-16T09:50:12.723Z,94.77
2019-02-16T09:53:03.306Z,72.40
2019-02-16T09:55:52.480Z,90.77
2019-02-16T09:58:41.504Z,76.67
2019-02-16T10:01:50.390Z,63.27
2019-02-16T10:04:37.381Z,66.90
2019-02-16T10:07:26.575Z,69.90
2019-02-16T10:10:22.930Z,61.40
2019-02-16T10:13:08.987Z,69.57
2019-02-16T10:16:02.656Z,66.60
2019-02-16T10:18:53.229Z,66.17
2019-02-16T10:21:46.571Z,65.73
2019-02-16T10:24:27.737Z,216.43
2019-02-16T10:27:33.162Z,76.00
2019-02-16T10:30:22.183Z,359.43
2019-02-16T10:33:12.789Z,587.90
2019-02-16T10:35:52.762Z,58.53
2019-02-16T10:38:43.370Z,55.90
2019-02-16T10:41:32.627Z,622.70
2019-02-16T10:44:38.016Z,278.93
2019-02-16T10:47:31.303Z,271.27
2019-02-16T10:50:14.400Z,86.43
2019-02-16T10:53:04.919Z,66.77
2019-02-16T10:55:50.046Z,68.27
2019-02-16T10:58:46.560Z,89.17
2019-02-16T11:01:35.700Z,89.33
2019-02-16T11:04:38.138Z,74.97
2019-02-16T11:07:10.431Z,79.77
2019-02-16T11:09:47.344Z,61.57
2019-02-16T11:12:40.759Z,89.73
2019-02-16T11:15:47.916Z,73.50
2019-02-16T11:18:30.640Z,53.63
2019-02-16T11:21:21.171Z,59.67
2019-02-16T11:24:11.774Z,51.07
2019-02-16T11:27:05.489Z,62.40
2019-02-16T11:29:46.633Z,86.57
2019-02-16T11:32:42.634Z,68.23
2019-02-16T11:35:40.421Z,60.70
2019-02-16T11:38:36.808Z,47.40
2019-02-16T11:41:19.450Z,59.20
2019-02-16T11:44:04.895Z,43.37
2019-02-16T11:46:58.692Z,46.63
2019-02-16T11:49:52.274Z,37.87
2019-02-16T11:52:51.741Z,61.50
2019-02-16T11:55:44.362Z,63.63
2019-02-16T11:58:34.774Z,38.13
2019-02-16T12:01:16.864Z,80.37
2019-02-16T12:04:19.488Z,65.37
2019-02-16T12:07:09.131Z,102.03
2019-02-16T12:10:14.130Z,38.03
2019-02-16T12:13:08.107Z,62.03
2019-02-16T12:16:00.043Z,64.63
2019-02-16T12:18:56.614Z,35.30
2019-02-16T12:21:44.110Z,70.17
2019-02-16T12:25:02.955Z,34.63
2019-02-16T12:27:40.704Z,40.73
2019-02-16T12:30:34.074Z,34.07
2019-02-16T12:33:31.287Z,89.57
2019-02-16T12:36:32.268Z,43.37
2019-02-16T12:39:35.267Z,47.37
2019-02-16T12:42:29.233Z,160.33
2019-02-16T12:45:21.385Z,36.03
2019-02-16T12:48:19.959Z,115.83
2019-02-16T12:51:07.558Z,53.90
2019-02-16T12:54:09.883Z,34.43
2019-02-16T12:57:03.219Z,28.73
2019-02-16T12:59:59.933Z,29.50
2019-02-16T13:02:50.446Z,29.63
2019-02-16T13:05:49.988Z,32.30
2019-02-16T13:08:39.507Z,28.67
2019-02-16T13:11:23.172Z,31.87
2019-02-16T13:14:11.566Z,31.97
2019-02-16T13:17:07.072Z,31.40
2019-02-16T13:19:46.923Z,40.07
2019-02-16T13:22:40.426Z,39.27
2019-02-16T13:25:36.779Z,45.90
2019-02-16T13:28:23.079Z,43.20
2019-02-16T13:31:19.632Z,32.57
2019-02-16T13:34:10.139Z,32.33
2019-02-16T13:36:53.243Z,34.13
2019-02-16T13:39:34.962Z,37.57
2019-02-16T13:42:28.451Z,34.17
2019-02-16T13:45:30.833Z,34.60
2019-02-16T13:48:24.123Z,41.53
2019-02-16T13:51:10.031Z,40.40
2019-02-16T13:54:06.708Z,33.07
2019-02-16T13:57:03.582Z,28.80
2019-02-16T13:59:52.714Z,29.23
2019-02-16T14:02:44.570Z,31.57
2019-02-16T14:05:27.118Z,35.17
2019-02-16T14:08:23.493Z,30.20
2019-02-16T14:10:59.751Z,33.30
2019-02-16T14:13:53.068Z,30.50
2019-02-16T14:16:32.812Z,31.30
2019-02-16T14:19:04.419Z,41.27
2019-02-16T14:21:36.113Z,36.43
2019-02-16T14:24:07.803Z,35.97
2019-02-16T14:26:39.402Z,43.63
2019-02-16T14:29:11.093Z,43.67
2019-02-16T14:31:42.703Z,43.40
2019-02-16T14:34:14.379Z,39.77
2019-02-16T14:36:47.431Z,37.00
2019-02-16T14:39:29.377Z,43.73
2019-02-16T14:42:01.056Z,44.27
2019-02-16T14:44:33.172Z,49.60
2019-02-16T14:47:04.956Z,64.50
2019-02-16T14:49:36.803Z,62.77
2019-02-16T14:52:10.247Z,58.50
2019-02-16T14:54:42.574Z,56.87
2019-02-16T14:57:14.550Z,53.50
2019-02-16T14:59:46.509Z,47.93
2019-02-16T15:02:18.400Z,45.50
2019-02-16T15:04:50.394Z,39.27
2019-02-16T15:07:22.475Z,43.50
2019-02-16T15:09:54.470Z,35.23
2019-02-16T15:12:26.558Z,37.30
2019-02-16T15:14:58.628Z,35.20
2019-02-16T15:17:31.680Z,34.00
2019-02-16T15:20:04.321Z,35.13
2019-02-16T15:22:36.529Z,38.70
2019-02-16T15:25:10.764Z,40.03
2019-02-16T15:27:43.044Z,42.47
2019-02-16T15:30:16.368Z,48.33
2019-02-16T15:32:48.061Z,60.47
2019-02-16T15:35:20.634Z,68.97
2019-02-16T15:37:53.484Z,102.57
2019-02-16T15:40:25.569Z,103.30
2019-02-16T15:42:57.775Z,87.60
2019-02-16T15:45:29.660Z,105.50
2019-02-16T15:48:01.331Z,187.93
2019-02-16T15:50:33.092Z,301.10
2019-02-16T15:53:04.811Z,288.07
2019-02-16T15:55:36.543Z,261.43
2019-02-16T15:58:08.236Z,181.20
2019-02-16T16:00:40.031Z,110.93
2019-02-16T16:03:11.649Z,80.03
2019-02-16T16:05:43.503Z,433.87
2019-02-16T16:08:33.129Z,484.70
2019-02-16T16:11:23.729Z,380.30
2019-02-16T16:14:23.762Z,396.73
2019-02-16T16:17:30.860Z,392.33
2019-02-16T16:20:09.443Z,414.97
2019-02-16T16:22:50.331Z,403.43
2019-02-16T16:25:33.932Z,539.83
2019-02-16T16:28:30.799Z,423.03
2019-02-16T16:31:20.194Z,432.57
2019-02-16T16:34:08.659Z,454.10
2019-02-16T16:37:14.140Z,494.17
2019-02-16T16:40:04.741Z,480.97
2019-02-16T16:42:55.320Z,415.17
2019-02-16T16:45:52.705Z,397.63
2019-02-16T16:48:30.305Z,388.87
2019-02-16T16:51:36.277Z,376.03
2019-02-16T16:54:25.370Z,392.40
2019-02-16T16:57:02.962Z,430.93
2019-02-16T16:59:55.557Z,525.80
2019-02-16T17:03:01.071Z,457.83
2019-02-16T17:05:57.416Z,476.77
2019-02-16T17:08:46.401Z,492.20
2019-02-16T17:11:35.746Z,490.43
2019-02-16T17:14:24.716Z,532.10
2019-02-16T17:17:09.243Z,497.13
2019-02-16T17:20:11.749Z,492.00
2019-02-16T17:23:02.329Z,509.77
2019-02-16T17:25:52.991Z,859.73
2019-02-16T17:28:49.609Z,572.07
2019-02-16T17:31:43.201Z,598.43
2019-02-16T17:34:33.849Z,647.83
2019-02-16T17:37:12.334Z,636.30
2019-02-16T17:39:55.220Z,649.33
2019-02-16T17:42:54.847Z,617.20
2019-02-16T17:45:54.305Z,602.80
2019-02-16T17:48:45.984Z,568.07
2019-02-16T17:51:26.697Z,545.77
2019-02-16T17:54:15.839Z,532.50
2019-02-16T17:57:15.126Z,543.67
2019-02-16T18:00:07.528Z,546.20
2019-02-16T18:03:04.573Z,648.60
2019-02-16T18:05:55.220Z,556.87
2019-02-16T18:08:42.691Z,569.60
2019-02-16T18:11:31.664Z,587.90
2019-02-16T18:14:20.545Z,569.00
2019-02-16T18:17:20.128Z,626.97
2019-02-16T18:20:10.730Z,640.13
2019-02-16T18:23:06.116Z,656.73
2019-02-16T18:25:54.713Z,695.73
2019-02-16T18:28:56.739Z,670.60
2019-02-16T18:31:49.446Z,636.80
2019-02-16T18:34:39.572Z,632.00
2019-02-16T18:37:38.958Z,633.33
2019-02-16T18:40:27.934Z,637.27
2019-02-16T18:43:23.715Z,610.17
2019-02-16T18:46:20.436Z,594.43
2019-02-16T18:49:09.385Z,611.60
2019-02-16T18:51:58.374Z,582.37
2019-02-16T18:54:36.304Z,560.10
2019-02-16T18:57:29.747Z,541.77
2019-02-16T19:00:23.126Z,526.23
2019-02-16T19:03:18.513Z,903.80
2019-02-16T19:06:09.118Z,680.17
2019-02-16T19:09:06.947Z,605.77
2019-02-16T19:11:58.032Z,563.93
2019-02-16T19:15:14.592Z,533.17
2019-02-16T19:17:53.231Z,552.37
2019-02-16T19:20:43.767Z,667.23
2019-02-16T19:23:27.682Z,644.47
2019-02-16T19:26:19.208Z,619.57
2019-02-16T19:29:08.152Z,605.37
2019-02-16T19:31:45.694Z,484.37
2019-02-16T19:34:42.111Z,485.90
2019-02-16T19:37:19.634Z,515.73
2019-02-16T19:40:13.788Z,530.37
2019-02-16T19:43:03.256Z,501.70
2019-02-16T19:45:43.218Z,487.90
2019-02-16T19:48:23.850Z,463.37
2019-02-16T19:51:20.385Z,462.97
2019-02-16T19:54:14.087Z,418.60
2019-02-16T19:57:26.931Z,424.67
2019-02-16T20:00:13.900Z,394.20
2019-02-16T20:03:07.379Z,364.80
2019-02-16T20:06:06.887Z,401.63
2019-02-16T20:09:00.230Z,308.57
2019-02-16T20:11:54.481Z,334.27
2019-02-16T20:14:45.206Z,284.63
2019-02-16T20:17:30.616Z,321.33
2019-02-16T20:20:20.016Z,397.17
2019-02-16T20:23:11.425Z,343.27
2019-02-16T20:26:11.074Z,322.27
2019-02-16T20:28:49.273Z,337.80
2019-02-16T20:31:30.885Z,349.33
2019-02-16T20:34:15.822Z,327.00
2019-02-16T20:36:55.738Z,310.33
2019-02-16T20:40:01.512Z,304.43
2019-02-16T20:43:02.486Z,310.90
2019-02-16T20:45:53.685Z,305.40
2019-02-16T20:48:43.285Z,285.20
2019-02-16T20:51:32.896Z,281.37
2019-02-16T20:54:32.809Z,287.47
2019-02-16T20:57:22.688Z,267.90
2019-02-16T21:00:16.432Z,264.60
2019-02-16T21:02:55.108Z,260.80
2019-02-16T21:05:45.661Z,239.97
2019-02-16T21:08:39.201Z,222.00
2019-02-16T21:11:34.963Z,217.27
2019-02-16T21:14:37.940Z,216.20
2019-02-16T21:17:40.749Z,184.73
2019-02-16T21:20:46.223Z,197.90
2019-02-16T21:23:33.247Z,188.57
2019-02-16T21:26:39.791Z,162.37
2019-02-16T21:29:23.035Z,158.93
2019-02-16T21:32:09.970Z,162.37
2019-02-16T21:35:00.651Z,267.40
2019-02-16T21:37:57.175Z,347.57
2019-02-16T21:40:47.789Z,171.43
2019-02-16T21:43:47.417Z,189.87
2019-02-16T21:46:47.120Z,193.53
2019-02-16T21:49:42.300Z,197.87
2019-02-16T21:52:43.659Z,199.47
2019-02-16T21:55:32.431Z,201.10
2019-02-16T21:58:21.450Z,201.07
2019-02-16T22:01:10.617Z,191.80
2019-02-16T22:04:16.384Z,173.27
2019-02-16T22:07:18.210Z,166.77
2019-02-16T22:10:23.962Z,170.83
2019-02-16T22:13:12.397Z,184.93
2019-02-16T22:15:44.101Z,185.50
2019-02-16T22:18:15.804Z,239.60
2019-02-16T22:20:48.028Z,256.20
2019-02-16T22:23:20.468Z,265.17
2019-02-16T22:25:52.928Z,288.47
2019-02-16T22:28:30.805Z,270.77
2019-02-16T22:30:58.320Z,295.50
2019-02-16T22:33:29.946Z,289.43
2019-02-16T22:36:01.556Z,301.97
2019-02-16T22:38:34.027Z,322.33
2019-02-16T22:41:05.948Z,312.97
2019-02-16T22:43:38.176Z,289.27
2019-02-16T22:46:10.038Z,382.30
2019-02-16T22:48:41.758Z,427.67
2019-02-16T22:51:13.660Z,360.73
2019-02-16T22:53:45.367Z,439.17
2019-02-16T22:56:17.360Z,325.53
2019-02-16T22:58:49.316Z,314.47
2019-02-16T23:01:21.015Z,320.77
2019-02-16T23:03:52.908Z,319.63
2019-02-16T23:06:25.000Z,323.47
2019-02-16T23:08:56.748Z,293.60
2019-02-16T23:11:28.460Z,306.57
2019-02-16T23:14:00.192Z,286.83
2019-02-16T23:16:32.321Z,298.40
2019-02-16T23:19:04.124Z,317.37
2019-02-16T23:21:36.141Z,293.10
2019-02-16T23:24:08.274Z,289.17
2019-02-16T23:26:40.197Z,306.00
2019-02-16T23:29:11.872Z,261.93
2019-02-16T23:31:43.580Z,275.97
2019-02-16T23:34:15.417Z,315.90
2019-02-16T23:36:47.849Z,313.67
2019-02-16T23:39:20.182Z,300.27
2019-02-16T23:41:51.914Z,264.40
2019-02-16T23:44:24.153Z,169.33
2019-02-16T23:46:55.777Z,239.37
2019-02-16T23:49:27.886Z,217.23
2019-02-16T23:52:00.137Z,244.27
2019-02-16T23:54:31.816Z,244.73
2019-02-16T23:57:03.801Z,254.83
2019-02-16T23:59:35.856Z,247.93
